NCAR-RAP Real-Time Weather Data

Output produced by METARs form (22 January 2018  03:47 UTC)
found at http://weather.rap.ucar.edu/surface/
 
Conditions at: KPGD observed 22 January 2018  02:53 UTC
Temperature: 19.4°C (67°F)
Dewpoint: 16.1°C (61°F) [RH = 81%]
Pressure (altimeter): 30.16 inches Hg (1021.4 mb)
[Sea-level pressure: 1021.4 mb]
Winds: from the E (100 degrees) at 7 MPH (6 knots; 3.1 m/s)
Visibility: 10 or more miles (16+ km)
Ceiling: at least 12,000 feet AGL
Clouds: sky clear below 12,000 feet AGL
Present Weather: automated observation with no human augmentation;
there may or may not be significant weather present at this time
KPGD 220253Z AUTO 10006KT 10SM CLR 19/16 A3016 RMK AO2 SLP214 T01940161 51006

Conditions at: KPGD observed 22 January 2018  01:53 UTC
Temperature: 20.0°C (68°F)
Dewpoint: 16.1°C (61°F) [RH = 78%]
Pressure (altimeter): 30.16 inches Hg (1021.4 mb)
[Sea-level pressure: 1021.3 mb]
Winds: from the E (90 degrees) at 7 MPH (6 knots; 3.1 m/s)
Visibility: 10 or more miles (16+ km)
Ceiling: 4500 feet AGL
Clouds: broken clouds at 4500 feet AGL
Present Weather: automated observation with no human augmentation;
there may or may not be significant weather present at this time
KPGD 220153Z AUTO 09006KT 10SM BKN045 20/16 A3016 RMK AO2 SLP213 T02000161

Conditions at: KPGD observed 22 January 2018  00:53 UTC
Temperature: 20.6°C (69°F)
Dewpoint: 16.1°C (61°F) [RH = 75%]
Pressure (altimeter): 30.15 inches Hg (1021.1 mb)
[Sea-level pressure: 1021.1 mb]
Winds: from the E (90 degrees) at 8 MPH (7 knots; 3.6 m/s)
Visibility: 10 or more miles (16+ km)
Ceiling: at least 12,000 feet AGL
Clouds: scattered clouds at 4300 feet AGL
Present Weather: no significant weather observed at this time
KPGD 220053Z 09007KT 10SM SCT043 21/16 A3015 RMK AO2 SLP211 T02060161

Conditions at: KPGD observed 21 January 2018  23:53 UTC
Temperature: 22.2°C (72°F)
Dewpoint: 15.6°C (60°F) [RH = 66%]
Pressure (altimeter): 30.14 inches Hg (1020.7 mb)
[Sea-level pressure: 1020.8 mb]
Winds: from the E (100 degrees) at 8 MPH (7 knots; 3.6 m/s)
Visibility: 10 or more miles (16+ km)
Ceiling: 4200 feet AGL
Clouds: broken clouds at 4200 feet AGL
Present Weather: no significant weather observed at this time
KPGD 212353Z 10007KT 10SM BKN042 22/16 A3014 RMK AO2 SLP208 T02220156 10272 20222 53008

Conditions at: KPGD observed 21 January 2018  22:53 UTC
Temperature: 23.3°C (74°F)
Dewpoint: 15.6°C (60°F) [RH = 62%]
Pressure (altimeter): 30.13 inches Hg (1020.4 mb)
[Sea-level pressure: 1020.3 mb]
Winds: from the E (100 degrees) at 9 MPH (8 knots; 4.2 m/s)
Visibility: 10 or more miles (16+ km)
Ceiling: at least 12,000 feet AGL
Clouds: scattered clouds at 4600 feet AGL
Present Weather: no significant weather observed at this time
KPGD 212253Z 10008KT 10SM SCT046 23/16 A3013 RMK AO2 SLP203 T02330156

Conditions at: KPGD observed 21 January 2018  21:53 UTC
Temperature: 25.6°C (78°F)
Dewpoint: 15.6°C (60°F) [RH = 54%]
Pressure (altimeter): 30.13 inches Hg (1020.4 mb)
[Sea-level pressure: 1020.2 mb]
Winds: from the E (100 degrees) at 10 MPH (9 knots; 4.7 m/s)
Visibility: 10 or more miles (16+ km)
Ceiling: at least 12,000 feet AGL
Clouds: scattered clouds at 4000 feet AGL
Present Weather: no significant weather observed at this time
KPGD 212153Z 10009KT 10SM SCT040 26/16 A3013 RMK AO2 SLP202 T02560156

Conditions at: KPGD observed 21 January 2018  20:53 UTC
Temperature: 26.7°C (80°F)
Dewpoint: 15.6°C (60°F) [RH = 51%]
Pressure (altimeter): 30.12 inches Hg (1020.1 mb)
[Sea-level pressure: 1020.0 mb]
Winds: from the ESE (120 degrees) at 13 MPH (11 knots; 5.7 m/s)
Visibility: 10 or more miles (16+ km)
Ceiling: at least 12,000 feet AGL
Clouds: few clouds at 3500 feet AGL
Present Weather: no significant weather observed at this time
KPGD 212053Z 12011KT 10SM FEW035 27/16 A3012 RMK AO2 SLP200 T02670156 56020

Conditions at: KPGD observed 21 January 2018  19:53 UTC
Temperature: 27.2°C (81°F)
Dewpoint: 15.6°C (60°F) [RH = 49%]
Pressure (altimeter): 30.13 inches Hg (1020.4 mb)
[Sea-level pressure: 1020.1 mb]
Winds: from the ESE (120 degrees) at 16 MPH (14 knots; 7.3 m/s)
Visibility: 10 or more miles (16+ km)
Ceiling: at least 12,000 feet AGL
Clouds: scattered clouds at 3900 feet AGL
Present Weather: no significant weather observed at this time
KPGD 211953Z 12014KT 10SM SCT039 27/16 A3013 RMK AO2 SLP201 T02720156

Conditions at: KPGD observed 21 January 2018  18:53 UTC
Temperature: 25.6°C (78°F)
Dewpoint: 15.6°C (60°F) [RH = 54%]
Pressure (altimeter): 30.15 inches Hg (1021.1 mb)
[Sea-level pressure: 1021.0 mb]
Winds: from the E (100 degrees) at 9 MPH (8 knots; 4.2 m/s)
gusting to 18 MPH (16 knots; 8.3 m/s)
Visibility: 10 or more miles (16+ km)
Ceiling: at least 12,000 feet AGL
Clouds: scattered clouds at 3500 feet AGL
scattered clouds at 5500 feet AGL
Present Weather: no significant weather observed at this time
KPGD 211853Z 10008G16KT 10SM SCT035 SCT055 26/16 A3015 RMK AO2 SLP210 T02560156

Conditions at: KPGD observed 21 January 2018  17:53 UTC
Temperature: 25.6°C (78°F)
Dewpoint: 16.1°C (61°F) [RH = 56%]
Pressure (altimeter): 30.18 inches Hg (1022.1 mb)
[Sea-level pressure: 1022.0 mb]
Winds: from the E (90 degrees) at 10 MPH (9 knots; 4.7 m/s)
gusting to 20 MPH (17 knots; 8.8 m/s)
Visibility: 10 or more miles (16+ km)
Ceiling: at least 12,000 feet AGL
Clouds: few clouds at 3400 feet AGL
scattered clouds at 4400 feet AGL
Present Weather: no significant weather observed at this time
KPGD 211753Z 09009G17KT 10SM FEW034 SCT044 26/16 A3018 RMK AO2 SLP220 T02560161 10261 20150 58022

Conditions at: KPGD observed 21 January 2018  16:53 UTC
Temperature: 25.0°C (77°F)
Dewpoint: 16.1°C (61°F) [RH = 58%]
Pressure (altimeter): 30.22 inches Hg (1023.5 mb)
[Sea-level pressure: 1023.3 mb]
Winds: from the E (90 degrees) at 10 MPH (9 knots; 4.7 m/s)
gusting to 20 MPH (17 knots; 8.8 m/s)
Visibility: 10 or more miles (16+ km)
Ceiling: at least 12,000 feet AGL
Clouds: scattered clouds at 3000 feet AGL
scattered clouds at 4100 feet AGL
Present Weather: no significant weather observed at this time
KPGD 211653Z 09009G17KT 10SM SCT030 SCT041 25/16 A3022 RMK AO2 SLP233 T02500161

Conditions at: KPGD observed 21 January 2018  15:53 UTC
Temperature: 23.9°C (75°F)
Dewpoint: 15.6°C (60°F) [RH = 60%]
Pressure (altimeter): 30.24 inches Hg (1024.1 mb)
[Sea-level pressure: 1024.0 mb]
Winds: from the ENE (70 degrees) at 12 MPH (10 knots; 5.2 m/s)
Visibility: 10 or more miles (16+ km)
Ceiling: 4900 feet AGL
Clouds: broken clouds at 4900 feet AGL
Present Weather: no significant weather observed at this time
KPGD 211553Z 07010KT 10SM BKN049 24/16 A3024 RMK AO2 SLP240 T02390156

Conditions at: KPGD observed 21 January 2018  14:53 UTC
Temperature: 20.6°C (69°F)
Dewpoint: 14.4°C (58°F) [RH = 68%]
Pressure (altimeter): 30.25 inches Hg (1024.5 mb)
[Sea-level pressure: 1024.3 mb]
Winds: from the ENE (70 degrees) at 8 MPH (7 knots; 3.6 m/s)
Visibility: 10 or more miles (16+ km)
Ceiling: 4500 feet AGL
Clouds: broken clouds at 4500 feet AGL
Present Weather: no significant weather observed at this time
KPGD 211453Z 07007KT 10SM BKN045 21/14 A3025 RMK AO2 SLP243 T02060144 53010

Conditions at: KPGD observed 21 January 2018  13:53 UTC
Temperature: 18.3°C (65°F)
Dewpoint: 13.3°C (56°F) [RH = 73%]
Pressure (altimeter): 30.23 inches Hg (1023.8 mb)
[Sea-level pressure: 1023.8 mb]
Winds: from the ENE (60 degrees) at 8 MPH (7 knots; 3.6 m/s)
Visibility: 10 or more miles (16+ km)
Ceiling: at least 12,000 feet AGL
Clouds: sky clear below 12,000 feet AGL
Present Weather: no significant weather observed at this time
KPGD 211353Z 06007KT 10SM CLR 18/13 A3023 RMK AO2 SLP238 T01830133

Conditions at: KPGD observed 21 January 2018  12:53 UTC
Temperature: 15.0°C (59°F)
Dewpoint: 12.8°C (55°F) [RH = 87%]
Pressure (altimeter): 30.23 inches Hg (1023.8 mb)
[Sea-level pressure: 1023.5 mb]
Winds: from the NNE (30 degrees) at 6 MPH (5 knots; 2.6 m/s)
Visibility: 10 or more miles (16+ km)
Ceiling: 4200 feet AGL
Clouds: broken clouds at 4200 feet AGL
Present Weather: no significant weather observed at this time
KPGD 211253Z 03005KT 10SM BKN042 15/13 A3023 RMK AO2 SLP235 T01500128

Conditions at: KPGD observed 21 January 2018  11:53 UTC
Temperature: 15.0°C (59°F)
Dewpoint: 12.8°C (55°F) [RH = 87%]
Pressure (altimeter): 30.22 inches Hg (1023.5 mb)
[Sea-level pressure: 1023.2 mb]
Winds: from the NNE (20 degrees) at 5 MPH (4 knots; 2.1 m/s)
Visibility: 10 or more miles (16+ km)
Ceiling: at least 12,000 feet AGL
Clouds: few clouds at 3600 feet AGL
Present Weather: no significant weather observed at this time
KPGD 211153Z 02004KT 10SM FEW036 15/13 A3022 RMK AO2 SLP232 T01500128 10156 20139 53009

Conditions at: KPGD observed 21 January 2018  10:53 UTC
Temperature: 15.0°C (59°F)
Dewpoint: 12.2°C (54°F) [RH = 83%]
Pressure (altimeter): 30.20 inches Hg (1022.8 mb)
[Sea-level pressure: 1022.7 mb]
Winds: from the NNE (20 degrees) at 8 MPH (7 knots; 3.6 m/s)
Visibility: 10 or more miles (16+ km)
Ceiling: at least 12,000 feet AGL
Clouds: sky clear below 12,000 feet AGL
Present Weather: no significant weather observed at this time
KPGD 211053Z 02007KT 10SM CLR 15/12 A3020 RMK AO2 SLP227 T01500122

Conditions at: KPGD observed 21 January 2018  09:53 UTC
Temperature: 14.4°C (58°F)
Dewpoint: 12.2°C (54°F) [RH = 87%]
Pressure (altimeter): 30.18 inches Hg (1022.1 mb)
[Sea-level pressure: 1022.2 mb]
Winds: from the NE (40 degrees) at 8 MPH (7 knots; 3.6 m/s)
Visibility: 10 or more miles (16+ km)
Ceiling: at least 12,000 feet AGL
Clouds: sky clear below 12,000 feet AGL
Present Weather: automated observation with no human augmentation;
there may or may not be significant weather present at this time
KPGD 210953Z AUTO 04007KT 10SM CLR 14/12 A3018 RMK AO2 SLP222 T01440122

Conditions at: KPGD observed 21 January 2018  08:53 UTC
Temperature: 14.4°C (58°F)
Dewpoint: 12.2°C (54°F) [RH = 87%]
Pressure (altimeter): 30.19 inches Hg (1022.4 mb)
[Sea-level pressure: 1022.3 mb]
Winds: from the NE (40 degrees) at 7 MPH (6 knots; 3.1 m/s)
Visibility: 10 or more miles (16+ km)
Ceiling: at least 12,000 feet AGL
Clouds: sky clear below 12,000 feet AGL
Present Weather: automated observation with no human augmentation;
there may or may not be significant weather present at this time
KPGD 210853Z AUTO 04006KT 10SM CLR 14/12 A3019 RMK AO2 SLP223 T01440122 55012

Conditions at: KPGD observed 21 January 2018  07:53 UTC
Temperature: 15.6°C (60°F)
Dewpoint: 12.8°C (55°F) [RH = 83%]
Pressure (altimeter): 30.19 inches Hg (1022.4 mb)
[Sea-level pressure: 1022.2 mb]
Winds: from the ENE (70 degrees) at 9 MPH (8 knots; 4.2 m/s)
Visibility: 10 or more miles (16+ km)
Ceiling: at least 12,000 feet AGL
Clouds: sky clear below 12,000 feet AGL
Present Weather: automated observation with no human augmentation;
there may or may not be significant weather present at this time
KPGD 210753Z AUTO 07008KT 10SM CLR 16/13 A3019 RMK AO2 SLP222 T01560128

Conditions at: KPGD observed 21 January 2018  06:53 UTC
Temperature: 15.0°C (59°F)
Dewpoint: 12.2°C (54°F) [RH = 83%]
Pressure (altimeter): 30.22 inches Hg (1023.5 mb)
[Sea-level pressure: 1023.3 mb]
Winds: from the NE (40 degrees) at 3 MPH (3 knots; 1.6 m/s)
Visibility: 10 or more miles (16+ km)
Ceiling: at least 12,000 feet AGL
Clouds: sky clear below 12,000 feet AGL
Present Weather: automated observation with no human augmentation;
there may or may not be significant weather present at this time
KPGD 210653Z AUTO 04003KT 10SM CLR 15/12 A3022 RMK AO2 SLP233 T01500122

Conditions at: KPGD observed 21 January 2018  05:53 UTC
Temperature: 15.0°C (59°F)
Dewpoint: 12.2°C (54°F) [RH = 83%]
Pressure (altimeter): 30.22 inches Hg (1023.5 mb)
[Sea-level pressure: 1023.5 mb]
Winds: from the N (10 degrees) at 5 MPH (4 knots; 2.1 m/s)
Visibility: 10 or more miles (16+ km)
Ceiling: at least 12,000 feet AGL
Clouds: few clouds at 10000 feet AGL
few clouds at 11000 feet AGL
Present Weather: automated observation with no human augmentation;
there may or may not be significant weather present at this time
KPGD 210553Z AUTO 01004KT 10SM FEW100 FEW110 15/12 A3022 RMK AO2 SLP235 T01500122 10183 20150 58005

Conditions at: KPGD observed 21 January 2018  04:53 UTC
Temperature: 16.1°C (61°F)
Dewpoint: 12.8°C (55°F) [RH = 81%]
Pressure (altimeter): 30.22 inches Hg (1023.5 mb)
[Sea-level pressure: 1023.4 mb]
Winds: from the E (100 degrees) at 7 MPH (6 knots; 3.1 m/s)
Visibility: 10 or more miles (16+ km)
Ceiling: at least 12,000 feet AGL
Clouds: sky clear below 12,000 feet AGL
Present Weather: automated observation with no human augmentation;
there may or may not be significant weather present at this time
KPGD 210453Z AUTO 10006KT 10SM CLR 16/13 A3022 RMK AO2 SLP234 T01610128 402390089

Conditions at: KPGD observed 21 January 2018  03:53 UTC
Temperature: 16.7°C (62°F)
Dewpoint: 12.2°C (54°F) [RH = 75%]
Pressure (altimeter): 30.26 inches Hg (1024.8 mb)
[Sea-level pressure: 1024.6 mb]
Winds: from the N (350 degrees) at 7 MPH (6 knots; 3.1 m/s)
Visibility: 10 or more miles (16+ km)
Ceiling: at least 12,000 feet AGL
Clouds: sky clear below 12,000 feet AGL
Present Weather: automated observation with no human augmentation;
there may or may not be significant weather present at this time
KPGD 210353Z AUTO 35006KT 10SM CLR 17/12 A3026 RMK AO2 SLP246 T01670122